Time;durP1;ratioP1;P1;durP2;ratioP2;P2;SDS_P1;SDS_P2;PMS_P1;PMS_P2;Temp;Humidity;BMP_temperature;BMP_pressure;BME280_temperature;BME280_humidity;BME280_pressure;Samples;Min_cycle;Max_cycle;Signal;HPM_P1;HPM_P2
2022/01/21 00:10:51;;;;;;;;;;;4.20;99.90;;;;;;6221193;23;19924;-84
2022/01/21 00:30:25;;;;;;;;;;;;;;;;;;;;;
2022/01/21 00:38:30;;;;;;;;;;;4.70;99.90;;;;;;6044948;23;19938;-83
2022/01/21 00:46:15;;;;;;;;;;;;;;;;;;;;;
2022/01/21 00:54:27;;;;;;;;;;;4.40;99.90;;;;;;6071142;23;19928;-82
2022/01/21 00:58:17;;;;;;;;;;;5.50;99.90;;;;;;6066790;23;19920;-81
2022/01/21 01:21:33;;;;;;;;;;;3.60;99.90;;;;;;6258952;22;19933;-89
2022/01/21 01:29:17;;;;;;;;;;;2.40;99.90;;;;;;6259219;22;19923;-89
2022/01/21 01:31:47;;;;;;;;;;;3.50;99.90;;;;;;6260288;22;19923;-89
2022/01/21 01:34:15;;;;;;;;;;;3.40;99.90;;;;;;6234090;22;20357;-87
2022/01/21 01:36:44;;;;;;;;;;;3.40;99.90;;;;;;6233364;22;19920;-87
2022/01/21 01:39:28;;;;;;;;;;;3.30;99.90;;;;;;6234167;22;19919;-86
2022/01/21 01:42:30;;;;;;;;;;;3.30;99.90;;;;;;6254344;23;20077;-89
2022/01/21 01:50:36;;;;;;;;;;;3.10;99.90;;;;;;6228570;23;20537;-88
2022/01/21 01:53:07;;;;;;;;;;;3.00;99.90;;;;;;6203169;23;19926;-87
2022/01/21 01:55:43;;;;;;;;;;;2.90;99.90;;;;;;6253902;23;19923;-87
2022/01/21 01:58:15;;;;;;;;;;;2.50;99.90;;;;;;6205001;23;20369;-89
2022/01/21 02:00:42;;;;;;;;;;;2.80;99.90;;;;;;6254435;23;19924;-87
2022/01/21 02:03:11;;;;;;;;;;;2.80;99.90;;;;;;6254513;23;19923;-88
2022/01/21 02:05:44;;;;;;;;;;;1.90;99.90;;;;;;6204049;23;20328;-87
2022/01/21 02:08:19;;;;;;;;;;;2.70;99.90;;;;;;6202808;23;19923;-87
2022/01/21 02:10:47;;;;;;;;;;;2.70;99.90;;;;;;6254336;23;19920;-88
2022/01/21 02:13:22;;;;;;;;;;;2.60;99.90;;;;;;6227411;23;19919;-87
2022/01/21 02:16:01;;;;;;;;;;;2.60;99.90;;;;;;6228625;23;19925;-86
2022/01/21 02:21:37;;;;;;;;;;;2.40;99.90;;;;;;6228427;23;19919;-87
2022/01/21 02:24:19;;;;;;;;;;;2.50;99.90;;;;;;6202428;23;19926;-89
2022/01/21 02:26:48;;;;;;;;;;;2.50;99.90;;;;;;6228594;23;19920;-88
2022/01/21 02:29:42;;;;;;;;;;;2.50;99.90;;;;;;6229016;23;19934;-87
2022/01/21 02:32:11;;;;;;;;;;;2.40;99.90;;;;;;6229508;23;19919;-86
2022/01/21 02:34:39;;;;;;;;;;;2.40;99.90;;;;;;6230661;23;19919;-87
2022/01/21 02:37:07;;;;;;;;;;;2.30;99.90;;;;;;6230730;23;20013;-87
2022/01/21 02:39:37;;;;;;;;;;;2.30;99.90;;;;;;6259117;23;19923;-88
2022/01/21 02:42:05;;;;;;;;;;;2.30;99.90;;;;;;6256475;23;19920;-87
2022/01/21 02:44:36;;;;;;;;;;;2.20;99.90;;;;;;6229268;23;19919;-88
2022/01/21 02:47:07;;;;;;;;;;;2.20;99.90;;;;;;6255488;23;19930;-86
2022/01/21 02:49:41;;;;;;;;;;;1.90;99.90;;;;;;6205439;23;19920;-88
2022/01/21 02:52:11;;;;;;;;;;;2.10;99.90;;;;;;6206517;23;19930;-86
2022/01/21 02:54:40;;;;;;;;;;;2.10;99.90;;;;;;6256912;23;20354;-87
2022/01/21 02:57:10;;;;;;;;;;;2.10;99.90;;;;;;6209327;23;19919;-86
2022/01/21 02:59:40;;;;;;;;;;;2.20;99.90;;;;;;6215226;23;19917;-87
2022/01/21 03:02:09;;;;;;;;;;;2.10;99.90;;;;;;6270377;22;19920;-85
2022/01/21 03:04:55;;;;;;;;;;;1.50;99.90;;;;;;6214338;23;19934;-85
2022/01/21 03:07:27;;;;;;;;;;;2.00;99.90;;;;;;6275308;22;19947;-86
2022/01/21 03:09:55;;;;;;;;;;;2.00;99.90;;;;;;6268324;23;19930;-85
2022/01/21 03:12:25;;;;;;;;;;;1.90;99.90;;;;;;6273726;22;19926;-85
2022/01/21 03:14:52;;;;;;;;;;;1.90;99.90;;;;;;6243269;23;19920;-86
2022/01/21 03:17:20;;;;;;;;;;;2.00;99.90;;;;;;6252296;23;20256;-85
2022/01/21 03:19:48;;;;;;;;;;;1.00;99.90;;;;;;6223728;23;19930;-86
2022/01/21 03:22:17;;;;;;;;;;;1.90;99.90;;;;;;6197211;23;20337;-85
2022/01/21 03:24:46;;;;;;;;;;;1.90;99.90;;;;;;6246927;23;19930;-86
2022/01/21 03:27:16;;;;;;;;;;;1.90;99.90;;;;;;6221658;23;19919;-87
2022/01/21 03:29:44;;;;;;;;;;;1.80;99.90;;;;;;6196921;23;19920;-84
2022/01/21 03:32:12;;;;;;;;;;;1.90;99.90;;;;;;6220826;23;19920;-86
2022/01/21 03:34:40;;;;;;;;;;;1.90;99.90;;;;;;6222592;23;19920;-86
2022/01/21 03:37:08;;;;;;;;;;;1.90;99.90;;;;;;6249097;23;19926;-87
2022/01/21 03:39:36;;;;;;;;;;;2.00;99.90;;;;;;6220188;23;19930;-87
2022/01/21 03:42:04;;;;;;;;;;;1.80;99.90;;;;;;6193663;23;20256;-86
2022/01/21 03:44:32;;;;;;;;;;;1.80;99.90;;;;;;6221671;23;19925;-86
2022/01/21 03:47:00;;;;;;;;;;;1.80;99.90;;;;;;6221816;23;20243;-88
2022/01/21 03:49:35;;;;;;;;;;;1.80;99.90;;;;;;6220422;23;19942;-86
2022/01/21 03:52:05;;;;;;;;;;;1.90;99.90;;;;;;6195743;23;20235;-87
2022/01/21 03:54:35;;;;;;;;;;;1.90;99.90;;;;;;6223627;23;19927;-87
2022/01/21 03:57:05;;;;;;;;;;;2.00;99.90;;;;;;6220845;23;19926;-85
2022/01/21 03:59:37;;;;;;;;;;;2.00;99.90;;;;;;6219646;23;20015;-87
2022/01/21 04:02:06;;;;;;;;;;;2.10;99.90;;;;;;6249548;23;19920;-85
2022/01/21 04:04:35;;;;;;;;;;;2.10;99.90;;;;;;6220707;23;20332;-87
2022/01/21 04:07:04;;;;;;;;;;;3.40;99.90;;;;;;6220395;23;19927;-86
2022/01/21 04:09:39;;;;;;;;;;;2.20;99.90;;;;;;6224159;23;20411;-85
2022/01/21 04:12:09;;;;;;;;;;;4.00;99.90;;;;;;6245749;23;20011;-86
2022/01/21 04:14:39;;;;;;;;;;;2.10;99.90;;;;;;6219624;23;19924;-86
2022/01/21 04:17:08;;;;;;;;;;;2.10;99.90;;;;;;6245435;23;19920;-87
2022/01/21 04:19:38;;;;;;;;;;;2.00;99.90;;;;;;6213583;23;20241;-87
2022/01/21 04:22:10;;;;;;;;;;;2.00;99.90;;;;;;6193920;23;19920;-87
2022/01/21 04:24:38;;;;;;;;;;;1.90;99.90;;;;;;6196842;23;19924;-88
2022/01/21 04:27:07;;;;;;;;;;;2.60;99.90;;;;;;6215051;23;19920;-88
2022/01/21 04:29:36;;;;;;;;;;;1.80;99.90;;;;;;6194339;23;20390;-89
2022/01/21 04:32:06;;;;;;;;;;;1.70;99.90;;;;;;6190335;23;20332;-88
2022/01/21 04:34:35;;;;;;;;;;;1.60;99.90;;;;;;6218623;23;20328;-87
2022/01/21 04:37:09;;;;;;;;;;;1.60;99.90;;;;;;6190398;23;19931;-88
2022/01/21 04:39:58;;;;;;;;;;;1.50;99.90;;;;;;6217505;23;19924;-87
2022/01/21 04:48:01;;;;;;;;;;;1.20;99.90;;;;;;6216653;23;20113;-87
2022/01/21 04:50:38;;;;;;;;;;;2.20;99.90;;;;;;6217392;23;19924;-86
2022/01/21 04:53:10;;;;;;;;;;;1.50;99.90;;;;;;6217970;23;20460;-88
2022/01/21 04:55:45;;;;;;;;;;;1.10;99.90;;;;;;6195316;23;19967;-87
2022/01/21 04:58:13;;;;;;;;;;;1.20;99.90;;;;;;6220004;23;19931;-87
2022/01/21 05:00:47;;;;;;;;;;;1.00;99.90;;;;;;6190570;23;20361;-88
2022/01/21 05:03:17;;;;;;;;;;;1.00;99.90;;;;;;6191626;23;19930;-85
2022/01/21 05:05:45;;;;;;;;;;;0.80;99.90;;;;;;6217822;23;19927;-86
2022/01/21 05:08:33;;;;;;;;;;;0.90;99.90;;;;;;6167274;23;19920;-85
2022/01/21 05:11:03;;;;;;;;;;;1.90;99.90;;;;;;6195427;23;19943;-88
2022/01/21 05:13:38;;;;;;;;;;;0.80;99.90;;;;;;6191491;23;20276;-87
2022/01/21 05:16:29;;;;;;;;;;;0.80;99.90;;;;;;6200835;23;20028;-85
2022/01/21 05:19:02;;;;;;;;;;;0.80;99.90;;;;;;6204723;23;19924;-87
2022/01/21 05:21:50;;;;;;;;;;;0.80;99.90;;;;;;6232287;23;19924;-87
2022/01/21 05:24:24;;;;;;;;;;;0.80;99.90;;;;;;6233984;23;19919;-86
2022/01/21 05:26:57;;;;;;;;;;;0.80;99.90;;;;;;6182475;23;19934;-86
2022/01/21 05:29:33;;;;;;;;;;;0.80;99.90;;;;;;6208928;23;19934;-84
2022/01/21 05:32:13;;;;;;;;;;;-0.10;99.90;;;;;;6208650;23;19918;-85
2022/01/21 05:35:12;;;;;;;;;;;1.70;99.90;;;;;;6171185;23;19927;-87
2022/01/21 05:38:20;;;;;;;;;;;2.60;99.90;;;;;;6150616;23;19924;-88
2022/01/21 05:41:32;;;;;;;;;;;0.70;99.90;;;;;;6143213;23;19928;-88
2022/01/21 05:47:17;;;;;;;;;;;0.70;99.90;;;;;;6222444;23;19926;-86
2022/01/21 05:50:16;;;;;;;;;;;0.70;99.90;;;;;;6089687;23;19931;-87
2022/01/21 05:52:56;;;;;;;;;;;0.60;99.90;;;;;;6192321;23;19924;-86
2022/01/21 05:55:43;;;;;;;;;;;0.60;99.90;;;;;;6221335;23;19939;-87
2022/01/21 05:58:32;;;;;;;;;;;2.00;99.90;;;;;;6214655;23;19925;-87
2022/01/21 06:01:01;;;;;;;;;;;0.50;99.90;;;;;;6217368;23;19931;-86
2022/01/21 06:04:06;;;;;;;;;;;1.40;99.90;;;;;;6211613;22;19926;-82
2022/01/21 06:08:15;;;;;;;;;;;;;;;;;;;;;
2022/01/21 06:11:58;;;;;;;;;;;0.80;99.90;;;;;;6196326;23;19924;-83
2022/01/21 06:15:45;;;;;;;;;;;0.20;99.90;;;;;;6177557;23;19924;-83
2022/01/21 06:19:32;;;;;;;;;;;;;;;;;;;;;
2022/01/21 06:27:00;;;;;;;;;;;1.80;99.90;;;;;;6032870;23;20019;-83
2022/01/21 06:30:45;;;;;;;;;;;0.60;99.90;;;;;;6006960;23;19922;-83
2022/01/21 06:34:26;;;;;;;;;;;;;;;;;;;;;
2022/01/21 06:42:03;;;;;;;;;;;-1.10;99.90;;;;;;6060155;23;20048;-82
2022/01/21 06:45:30;;;;;;;;;;;0.80;99.90;;;;;;6108427;23;19927;-82
2022/01/21 06:49:24;;;;;;;;;;;0.50;99.90;;;;;;6077507;23;19925;-82
2022/01/21 06:52:39;;;;;;;;;;;0.60;99.90;;;;;;6106071;23;19921;-82
2022/01/21 06:55:23;;;;;;;;;;;0.30;99.90;;;;;;6115020;23;19927;-83
2022/01/21 06:58:47;;;;;;;;;;;2.10;99.90;;;;;;6110667;23;19925;-83
2022/01/21 07:01:23;;;;;;;;;;;0.40;99.90;;;;;;6124645;23;20299;-81
2022/01/21 07:04:13;;;;;;;;;;;0.60;99.90;;;;;;6137224;23;19931;-82
2022/01/21 07:10:30;;;;;;;;;;;;;;;;;;;;;
2022/01/21 07:14:19;;;;;;;;;;;2.30;99.90;;;;;;5974071;24;19926;-82
2022/01/21 07:17:32;;;;;;;;;;;0.60;99.90;;;;;;6048179;23;20001;-81
2022/01/21 07:20:23;;;;;;;;;;;0.60;99.90;;;;;;6032186;23;19926;-81
2022/01/21 07:23:25;;;;;;;;;;;0.10;99.90;;;;;;6038373;23;20283;-85
2022/01/21 07:26:19;;;;;;;;;;;0.50;99.90;;;;;;6028364;23;20426;-82
2022/01/21 07:28:55;;;;;;;;;;;0.10;99.90;;;;;;6192085;23;19951;-82
2022/01/21 07:32:08;;;;;;;;;;;0.20;99.90;;;;;;6202856;23;19934;-82
2022/01/21 07:35:18;;;;;;;;;;;0.40;99.90;;;;;;6213993;23;19926;-81
2022/01/21 07:41:07;;;;;;;;;;;0.40;99.90;;;;;;6188157;23;19926;-82
2022/01/21 07:43:40;;;;;;;;;;;0.20;99.90;;;;;;6175880;23;19934;-82
2022/01/21 07:46:12;;;;;;;;;;;0.30;99.90;;;;;;6210822;23;19924;-81
2022/01/21 07:48:41;;;;;;;;;;;0.30;99.90;;;;;;6170715;23;19920;-82
2022/01/21 07:51:11;;;;;;;;;;;0.40;99.90;;;;;;6171314;23;19924;-82
2022/01/21 07:53:39;;;;;;;;;;;0.30;99.90;;;;;;6197861;23;19920;-83
2022/01/21 07:56:07;;;;;;;;;;;0.40;99.90;;;;;;6174614;23;19934;-83
2022/01/21 07:58:37;;;;;;;;;;;0.40;99.90;;;;;;6207651;23;20033;-86
2022/01/21 08:01:06;;;;;;;;;;;0.40;99.90;;;;;;6207495;23;19924;-83
2022/01/21 08:03:35;;;;;;;;;;;0.40;99.90;;;;;;6219209;23;19938;-83
2022/01/21 08:06:03;;;;;;;;;;;0.40;99.90;;;;;;6240680;23;19920;-84
2022/01/21 08:08:31;;;;;;;;;;;0.30;99.90;;;;;;6239595;23;19934;-82
2022/01/21 08:10:59;;;;;;;;;;;0.40;99.90;;;;;;6205258;23;19920;-83
2022/01/21 08:13:32;;;;;;;;;;;1.70;99.90;;;;;;6228627;23;19934;-82
2022/01/21 08:16:12;;;;;;;;;;;0.40;99.90;;;;;;6232325;23;19930;-83
2022/01/21 08:18:40;;;;;;;;;;;0.30;99.90;;;;;;6229506;23;19923;-83
2022/01/21 08:21:08;;;;;;;;;;;0.40;99.90;;;;;;6239179;23;19920;-84
2022/01/21 08:23:39;;;;;;;;;;;-0.30;99.90;;;;;;6205245;23;19924;-86
2022/01/21 08:26:07;;;;;;;;;;;0.40;99.90;;;;;;6202596;23;19928;-84
2022/01/21 08:28:34;;;;;;;;;;;0.40;99.90;;;;;;6232441;23;19926;-83
2022/01/21 08:31:04;;;;;;;;;;;0.60;99.90;;;;;;6241802;23;19938;-83
2022/01/21 08:33:33;;;;;;;;;;;0.50;99.90;;;;;;6233003;23;19920;-84
2022/01/21 08:36:11;;;;;;;;;;;;;;;;;;;;;
2022/01/21 08:38:53;;;;;;;;;;;0.40;99.90;;;;;;6243882;23;19924;-83
2022/01/21 08:41:34;;;;;;;;;;;0.50;99.90;;;;;;6208348;23;19926;-83
2022/01/21 08:44:03;;;;;;;;;;;0.20;99.90;;;;;;6231592;23;19920;-83
2022/01/21 08:46:31;;;;;;;;;;;0.50;99.90;;;;;;6235287;23;19923;-83
2022/01/21 08:49:06;;;;;;;;;;;0.90;99.90;;;;;;6207812;23;19904;-83
2022/01/21 08:51:46;;;;;;;;;;;0.60;99.90;;;;;;6182764;23;19919;-82
2022/01/21 08:54:15;;;;;;;;;;;0.70;99.90;;;;;;6208354;23;19924;-83
2022/01/21 08:56:44;;;;;;;;;;;0.80;99.90;;;;;;6237813;23;19924;-82
2022/01/21 08:59:18;;;;;;;;;;;0.60;99.90;;;;;;6232560;23;19931;-83
2022/01/21 09:01:46;;;;;;;;;;;0.80;99.90;;;;;;6207788;23;19926;-83
2022/01/21 09:04:15;;;;;;;;;;;1.10;99.90;;;;;;6232540;23;19924;-82
2022/01/21 09:06:43;;;;;;;;;;;0.90;99.90;;;;;;6204851;23;19920;-83
2022/01/21 09:09:11;;;;;;;;;;;0.90;99.90;;;;;;6238749;23;19930;-83
2022/01/21 09:11:39;;;;;;;;;;;1.00;99.90;;;;;;6230311;23;19924;-83
2022/01/21 09:14:09;;;;;;;;;;;0.90;99.90;;;;;;6232741;23;19923;-83
2022/01/21 09:16:37;;;;;;;;;;;1.10;99.90;;;;;;6227700;23;19928;-83
2022/01/21 09:19:10;;;;;;;;;;;1.10;99.90;;;;;;6229016;23;19924;-83
2022/01/21 09:21:42;;;;;;;;;;;1.20;99.90;;;;;;6228780;23;19924;-83
2022/01/21 09:24:10;;;;;;;;;;;1.20;99.90;;;;;;6228983;23;19926;-83
2022/01/21 09:26:43;;;;;;;;;;;1.30;99.90;;;;;;6237385;23;19920;-82
2022/01/21 09:29:12;;;;;;;;;;;1.30;99.90;;;;;;6223562;23;19924;-84
2022/01/21 09:31:43;;;;;;;;;;;1.40;99.90;;;;;;6228051;23;20364;-82
2022/01/21 09:34:27;;;;;;;;;;;1.40;99.90;;;;;;6229485;23;19958;-82
2022/01/21 09:36:57;;;;;;;;;;;1.50;99.90;;;;;;6205564;23;19919;-82
2022/01/21 09:39:27;;;;;;;;;;;1.60;99.90;;;;;;6239653;23;19924;-82
2022/01/21 09:41:59;;;;;;;;;;;0.20;99.90;;;;;;6227362;23;19934;-82
2022/01/21 09:44:28;;;;;;;;;;;1.70;99.90;;;;;;6252967;23;19928;-83
2022/01/21 09:46:59;;;;;;;;;;;0.20;99.90;;;;;;6178112;23;19920;-82
2022/01/21 09:49:28;;;;;;;;;;;1.70;99.90;;;;;;6230560;23;20421;-81
2022/01/21 09:51:56;;;;;;;;;;;1.80;99.90;;;;;;6228175;23;19919;-82
2022/01/21 09:54:25;;;;;;;;;;;1.90;99.90;;;;;;6236715;23;19924;-82
2022/01/21 09:56:56;;;;;;;;;;;1.90;99.90;;;;;;6239667;23;19920;-82
2022/01/21 09:59:25;;;;;;;;;;;2.00;99.90;;;;;;6231462;23;19920;-84
2022/01/21 10:02:00;;;;;;;;;;;2.00;99.90;;;;;;6231647;23;19934;-82
2022/01/21 10:04:30;;;;;;;;;;;1.20;99.90;;;;;;6229851;23;19930;-82
2022/01/21 10:06:58;;;;;;;;;;;2.20;99.90;;;;;;6207829;23;19928;-82
2022/01/21 10:09:39;;;;;;;;;;;2.20;99.90;;;;;;6228737;23;19926;-82
2022/01/21 10:12:11;;;;;;;;;;;2.20;99.90;;;;;;6227310;23;19923;-82
2022/01/21 10:14:40;;;;;;;;;;;1.50;99.90;;;;;;6214186;23;20250;-83
2022/01/21 10:17:20;;;;;;;;;;;2.50;99.90;;;;;;6227459;23;19924;-82
2022/01/21 10:19:53;;;;;;;;;;;2.20;99.90;;;;;;6229628;23;19920;-82
2022/01/21 10:22:23;;;;;;;;;;;1.90;99.90;;;;;;6202001;23;20059;-83
2022/01/21 10:24:54;;;;;;;;;;;3.10;99.90;;;;;;6229652;23;19920;-83
2022/01/21 10:27:29;;;;;;;;;;;2.60;99.90;;;;;;6240482;23;19920;-83
2022/01/21 10:30:18;;;;;;;;;;;2.90;99.90;;;;;;6206632;23;19938;-83
2022/01/21 10:36:07;;;;;;;;;;;2.00;99.90;;;;;;6224509;23;19919;-82
2022/01/21 10:38:42;;;;;;;;;;;3.20;99.90;;;;;;6230799;23;19920;-82
2022/01/21 10:41:12;;;;;;;;;;;3.40;99.90;;;;;;6214470;23;19919;-83
2022/01/21 10:44:01;;;;;;;;;;;3.50;99.90;;;;;;6228027;23;20048;-82
2022/01/21 10:46:32;;;;;;;;;;;3.50;99.90;;;;;;6215130;23;19930;-82
2022/01/21 10:49:03;;;;;;;;;;;3.80;99.90;;;;;;6202696;23;19926;-82
2022/01/21 10:51:33;;;;;;;;;;;3.90;99.90;;;;;;6240957;23;19920;-82
2022/01/21 10:54:38;;;;;;;;;;;3.80;99.90;;;;;;6178636;23;19926;-83
2022/01/21 10:57:12;;;;;;;;;;;3.80;99.90;;;;;;6195249;23;19919;-82
2022/01/21 10:59:43;;;;;;;;;;;3.80;99.90;;;;;;6241061;23;19923;-83
2022/01/21 11:02:12;;;;;;;;;;;3.50;99.90;;;;;;6214330;23;19924;-82
2022/01/21 11:04:41;;;;;;;;;;;5.30;99.90;;;;;;6271340;23;20097;-82
2022/01/21 11:07:13;;;;;;;;;;;3.60;99.90;;;;;;6237520;23;19923;-82
2022/01/21 11:09:41;;;;;;;;;;;4.00;99.90;;;;;;6261235;23;19925;-82
2022/01/21 11:12:16;;;;;;;;;;;4.10;99.90;;;;;;6263535;23;19924;-82
2022/01/21 11:15:04;;;;;;;;;;;4.90;99.90;;;;;;6235430;23;19930;-82
2022/01/21 11:17:34;;;;;;;;;;;3.90;99.90;;;;;;6210058;23;19919;-83
2022/01/21 11:20:06;;;;;;;;;;;5.60;99.90;;;;;;6261557;23;20292;-83
2022/01/21 11:22:54;;;;;;;;;;;5.20;99.90;;;;;;6270300;23;19930;-82
2022/01/21 11:25:41;;;;;;;;;;;4.40;99.90;;;;;;6232762;23;19924;-82
2022/01/21 11:28:15;;;;;;;;;;;4.30;99.90;;;;;;6262029;23;19920;-83
2022/01/21 11:30:44;;;;;;;;;;;4.30;99.90;;;;;;6241107;23;19924;-82
2022/01/21 11:33:15;;;;;;;;;;;4.30;99.90;;;;;;6270374;23;19926;-83
2022/01/21 11:35:44;;;;;;;;;;;4.70;99.90;;;;;;6272221;23;19923;-83
2022/01/21 11:38:12;;;;;;;;;;;4.40;99.90;;;;;;6234573;23;19926;-84
2022/01/21 11:40:40;;;;;;;;;;;4.30;99.90;;;;;;6244281;23;19920;-83
2022/01/21 11:43:10;;;;;;;;;;;4.40;99.90;;;;;;6260193;23;19923;-82
2022/01/21 11:50:55;;;;;;;;;;;4.50;99.90;;;;;;6233686;23;19920;-83
2022/01/21 11:53:50;;;;;;;;;;;4.40;99.90;;;;;;6184652;23;20404;-83
2022/01/21 11:56:42;;;;;;;;;;;4.50;99.90;;;;;;6210642;23;19938;-82
2022/01/21 11:59:47;;;;;;;;;;;4.50;99.90;;;;;;6235799;23;19930;-83
2022/01/21 12:02:18;;;;;;;;;;;4.40;99.90;;;;;;6236710;23;20328;-83
2022/01/21 12:05:06;;;;;;;;;;;4.40;99.90;;;;;;6272770;23;19934;-82
2022/01/21 12:07:34;;;;;;;;;;;3.20;99.90;;;;;;6209101;23;19920;-82
2022/01/21 12:10:09;;;;;;;;;;;4.70;99.90;;;;;;6270287;23;19923;-82
2022/01/21 12:12:53;;;;;;;;;;;5.30;99.90;;;;;;6244088;23;19934;-82
2022/01/21 12:15:22;;;;;;;;;;;4.50;99.90;;;;;;6235943;23;19926;-82
2022/01/21 12:18:03;;;;;;;;;;;4.50;99.90;;;;;;6263152;23;19926;-82
2022/01/21 12:20:33;;;;;;;;;;;4.50;99.90;;;;;;6260362;23;20380;-81
2022/01/21 12:23:09;;;;;;;;;;;4.50;99.90;;;;;;6242677;23;19924;-83
2022/01/21 12:25:56;;;;;;;;;;;4.20;99.90;;;;;;6270507;23;19919;-81
2022/01/21 12:28:25;;;;;;;;;;;4.40;99.90;;;;;;6235508;23;19926;-82
2022/01/21 12:30:57;;;;;;;;;;;4.60;99.90;;;;;;6234908;23;19942;-83
2022/01/21 12:34:08;;;;;;;;;;;4.70;99.90;;;;;;6234026;23;20091;-81
2022/01/21 12:36:54;;;;;;;;;;;4.60;99.90;;;;;;6270088;23;20042;-80
2022/01/21 12:39:36;;;;;;;;;;;5.00;99.90;;;;;;6235817;23;19919;-82
2022/01/21 12:42:27;;;;;;;;;;;4.80;99.90;;;;;;6208672;23;19923;-83
2022/01/21 12:44:59;;;;;;;;;;;3.60;99.90;;;;;;6226375;23;19920;-83
2022/01/21 12:47:39;;;;;;;;;;;4.60;99.90;;;;;;6263150;23;19992;-82
2022/01/21 12:50:07;;;;;;;;;;;2.80;99.90;;;;;;6208206;23;19919;-82
2022/01/21 12:53:15;;;;;;;;;;;4.60;99.90;;;;;;6245161;23;19924;-83
2022/01/21 12:55:59;;;;;;;;;;;4.60;99.90;;;;;;6203647;23;19924;-83
2022/01/21 12:58:28;;;;;;;;;;;4.60;99.90;;;;;;6205514;23;19920;-82
2022/01/21 13:01:08;;;;;;;;;;;4.80;99.90;;;;;;6240723;23;19919;-81
2022/01/21 13:04:05;;;;;;;;;;;4.50;99.90;;;;;;6229941;23;19919;-82
2022/01/21 13:06:57;;;;;;;;;;;4.60;99.90;;;;;;6259368;23;19924;-81
2022/01/21 13:10:00;;;;;;;;;;;4.00;99.90;;;;;;6194814;23;19920;-82
2022/01/21 13:15:43;;;;;;;;;;;4.80;99.90;;;;;;6205985;23;19930;-81
2022/01/21 13:18:14;;;;;;;;;;;4.00;99.90;;;;;;6240313;23;19919;-81
2022/01/21 13:20:52;;;;;;;;;;;4.80;99.90;;;;;;6232592;23;19938;-81
2022/01/21 13:23:56;;;;;;;;;;;4.80;99.90;;;;;;6258652;23;19930;-82
2022/01/21 13:26:40;;;;;;;;;;;4.80;99.90;;;;;;6232396;23;19974;-81
2022/01/21 13:29:37;;;;;;;;;;;4.90;99.90;;;;;;6267531;23;19926;-81
2022/01/21 13:32:23;;;;;;;;;;;4.80;99.90;;;;;;6270815;23;19920;-82
2022/01/21 13:35:05;;;;;;;;;;;5.10;99.90;;;;;;6246346;23;19919;-82
2022/01/21 13:37:39;;;;;;;;;;;5.00;99.90;;;;;;6212464;23;19919;-81
2022/01/21 13:40:09;;;;;;;;;;;5.20;99.90;;;;;;6236185;23;19926;-81
2022/01/21 13:43:13;;;;;;;;;;;4.70;99.90;;;;;;6242102;23;19919;-82
2022/01/21 13:45:42;;;;;;;;;;;5.10;99.90;;;;;;6236806;23;19923;-81
2022/01/21 13:48:15;;;;;;;;;;;5.00;99.90;;;;;;6243307;23;19919;-81
2022/01/21 13:50:45;;;;;;;;;;;5.10;99.90;;;;;;6269420;23;19930;-80
2022/01/21 13:53:18;;;;;;;;;;;4.20;99.90;;;;;;6231911;23;19919;-81
2022/01/21 13:55:51;;;;;;;;;;;5.00;99.90;;;;;;6268839;23;19919;-82
2022/01/21 13:58:45;;;;;;;;;;;5.00;99.90;;;;;;6209753;23;19923;-80
2022/01/21 14:01:21;;;;;;;;;;;5.10;99.90;;;;;;6230979;23;19920;-81
2022/01/21 14:03:58;;;;;;;;;;;5.80;99.90;;;;;;6226141;23;20337;-81
2022/01/21 14:06:30;;;;;;;;;;;5.20;99.90;;;;;;6203180;23;19920;-80
2022/01/21 14:09:03;;;;;;;;;;;5.40;99.90;;;;;;6225674;23;19924;-81
2022/01/21 14:11:43;;;;;;;;;;;5.60;99.90;;;;;;6229207;23;19927;-81
2022/01/21 14:14:42;;;;;;;;;;;5.40;99.90;;;;;;6227005;23;19927;-82
2022/01/21 14:17:25;;;;;;;;;;;3.40;99.90;;;;;;6226421;23;19924;-82
2022/01/21 14:19:55;;;;;;;;;;;5.50;99.90;;;;;;6230502;23;19924;-81
2022/01/21 14:22:31;;;;;;;;;;;5.30;99.90;;;;;;6178066;23;19924;-80
2022/01/21 14:25:17;;;;;;;;;;;5.20;99.90;;;;;;6230576;23;19924;-81
2022/01/21 14:27:52;;;;;;;;;;;5.30;99.90;;;;;;6236550;23;19920;-81
2022/01/21 14:30:50;;;;;;;;;;;4.80;99.90;;;;;;6217266;23;20366;-81
2022/01/21 14:33:37;;;;;;;;;;;5.20;99.90;;;;;;6202357;23;19938;-81
2022/01/21 14:36:33;;;;;;;;;;;4.80;99.90;;;;;;6226943;23;19930;-83
2022/01/21 14:39:15;;;;;;;;;;;6.20;99.90;;;;;;6228102;23;19926;-83
2022/01/21 14:41:50;;;;;;;;;;;5.40;99.90;;;;;;6228609;23;19924;-83
2022/01/21 14:44:51;;;;;;;;;;;5.20;99.90;;;;;;6239423;23;19920;-83
2022/01/21 14:47:43;;;;;;;;;;;5.40;99.90;;;;;;6217317;23;19928;-82
2022/01/21 14:50:41;;;;;;;;;;;5.30;99.90;;;;;;6218775;23;19930;-82
2022/01/21 14:53:31;;;;;;;;;;;5.30;99.90;;;;;;6206793;23;19920;-81
2022/01/21 14:56:03;;;;;;;;;;;5.70;99.90;;;;;;6231305;23;19920;-82
2022/01/21 14:58:36;;;;;;;;;;;5.20;99.90;;;;;;6232656;23;19920;-83
2022/01/21 15:01:11;;;;;;;;;;;5.20;99.90;;;;;;6233176;23;20471;-84
2022/01/21 15:03:46;;;;;;;;;;;5.00;99.90;;;;;;6230010;23;19919;-83
2022/01/21 15:06:42;;;;;;;;;;;4.40;99.90;;;;;;6249699;23;19930;-84
2022/01/21 15:09:33;;;;;;;;;;;4.60;99.90;;;;;;6241685;23;19924;-82
2022/01/21 15:15:53;;;;;;;;;;;5.20;99.90;;;;;;6232640;23;19930;-85
2022/01/21 15:18:21;;;;;;;;;;;5.30;99.90;;;;;;6203832;23;19924;-83
2022/01/21 15:20:55;;;;;;;;;;;7.30;99.90;;;;;;6229753;23;19923;-83
2022/01/21 15:23:24;;;;;;;;;;;5.30;99.90;;;;;;6234047;23;19924;-83
2022/01/21 15:25:59;;;;;;;;;;;5.30;99.90;;;;;;6238420;23;19920;-83
2022/01/21 15:28:30;;;;;;;;;;;5.40;99.90;;;;;;6229460;23;19928;-83
2022/01/21 15:31:08;;;;;;;;;;;5.40;99.90;;;;;;6229397;23;19924;-81
2022/01/21 15:33:41;;;;;;;;;;;4.20;99.90;;;;;;6227138;23;19934;-83
2022/01/21 15:36:18;;;;;;;;;;;5.50;99.90;;;;;;6204301;23;19930;-83
2022/01/21 15:38:47;;;;;;;;;;;5.30;99.90;;;;;;6239267;23;19923;-86
2022/01/21 15:41:37;;;;;;;;;;;5.50;99.90;;;;;;6208519;23;19920;-83
2022/01/21 15:44:20;;;;;;;;;;;5.60;99.90;;;;;;6234866;23;20002;-83
2022/01/21 15:47:01;;;;;;;;;;;5.40;99.90;;;;;;6211140;23;19934;-83
2022/01/21 15:49:46;;;;;;;;;;;6.70;99.90;;;;;;6247680;23;19920;-83
2022/01/21 15:52:40;;;;;;;;;;;5.30;99.90;;;;;;6187891;23;19923;-83
2022/01/21 15:55:50;;;;;;;;;;;5.00;99.90;;;;;;6212280;23;19920;-84
2022/01/21 15:58:54;;;;;;;;;;;5.60;99.90;;;;;;6231138;23;20216;-83
2022/01/21 16:01:43;;;;;;;;;;;;;;;;;;;;;
2022/01/21 16:05:11;;;;;;;;;;;;;;;;;;;;;
2022/01/21 16:08:31;;;;;;;;;;;5.30;99.90;;;;;;6233358;23;19930;-83
2022/01/21 16:11:57;;;;;;;;;;;;;;;;;;;;;
2022/01/21 16:19:15;;;;;;;;;;;;;;;;;;;;;
2022/01/21 16:22:40;;;;;;;;;;;5.30;99.90;;;;;;6098336;23;19931;-84
2022/01/21 16:26:08;;;;;;;;;;;5.60;99.90;;;;;;6095618;23;19935;-83
2022/01/21 16:33:00;;;;;;;;;;;5.70;99.90;;;;;;6092946;23;19925;-82
2022/01/21 16:36:20;;;;;;;;;;;4.90;99.90;;;;;;6084860;23;19949;-83
2022/01/21 16:39:34;;;;;;;;;;;5.00;99.90;;;;;;6080235;23;19959;-80
2022/01/21 16:49:31;;;;;;;;;;;5.50;99.90;;;;;;6170981;23;19931;-83
2022/01/21 16:52:53;;;;;;;;;;;;;;;;;;;;;
2022/01/21 16:56:17;;;;;;;;;;;5.10;99.90;;;;;;6168209;23;19924;-83
2022/01/21 17:00:06;;;;;;;;;;;;;;;;;;;;;
2022/01/21 17:06:59;;;;;;;;;;;5.10;99.90;;;;;;6140169;23;20026;-82
2022/01/21 17:10:14;;;;;;;;;;;5.20;99.90;;;;;;6163268;23;19920;-85
2022/01/21 17:12:59;;;;;;;;;;;5.50;99.90;;;;;;6120347;23;20058;-85
2022/01/21 17:16:17;;;;;;;;;;;5.20;99.90;;;;;;6127948;23;19925;-83
2022/01/21 17:19:30;;;;;;;;;;;5.60;99.90;;;;;;6162612;23;19924;-82
2022/01/21 17:21:59;;;;;;;;;;;4.60;99.90;;;;;;6147363;23;19921;-82
2022/01/21 17:24:32;;;;;;;;;;;5.60;99.90;;;;;;6174536;23;19921;-83
2022/01/21 17:27:31;;;;;;;;;;;;;;;;;;;;;
2022/01/21 17:31:02;;;;;;;;;;;5.30;99.90;;;;;;6186339;23;19952;-82
2022/01/21 17:37:58;;;;;;;;;;;3.50;99.90;;;;;;6117367;23;20380;-82
2022/01/21 17:42:08;;;;;;;;;;;;;;;;;;;;;
2022/01/21 17:57:27;;;;;;;;;;;6.10;99.90;;;;;;6050610;23;19925;-83
2022/01/21 18:00:27;;;;;;;;;;;5.70;99.90;;;;;;6039467;23;19932;-85
2022/01/21 18:03:48;;;;;;;;;;;4.90;99.90;;;;;;6011672;23;19922;-83
2022/01/21 18:06:58;;;;;;;;;;;5.30;99.90;;;;;;6024007;23;19958;-83
2022/01/21 18:13:28;;;;;;;;;;;4.80;99.90;;;;;;5977846;24;19923;-82
2022/01/21 18:16:04;;;;;;;;;;;5.40;99.90;;;;;;5993140;23;19927;-81
2022/01/21 18:22:22;;;;;;;;;;;5.20;99.90;;;;;;5910879;24;19918;-82
2022/01/21 18:25:14;;;;;;;;;;;5.50;99.90;;;;;;5910912;24;19942;-82
2022/01/21 18:28:36;;;;;;;;;;;5.40;99.90;;;;;;5938273;23;19937;-82
2022/01/21 18:32:04;;;;;;;;;;;3.70;99.90;;;;;;5971126;23;19927;-82
2022/01/21 18:35:36;;;;;;;;;;;5.30;99.90;;;;;;5956446;24;19993;-81
2022/01/21 18:39:24;;;;;;;;;;;5.20;99.90;;;;;;5975609;23;19934;-81
2022/01/21 18:42:31;;;;;;;;;;;5.40;99.90;;;;;;5975851;24;19923;-82
2022/01/21 18:49:58;;;;;;;;;;;4.00;99.90;;;;;;6053431;23;19921;-83
2022/01/21 18:57:54;;;;;;;;;;;5.50;99.90;;;;;;5948954;24;19937;-81
2022/01/21 19:01:41;;;;;;;;;;;;;;;;;;;;;
2022/01/21 19:05:16;;;;;;;;;;;;;;;;;;;;;
2022/01/21 19:08:29;;;;;;;;;;;;;;;;;;;;;
2022/01/21 19:16:17;;;;;;;;;;;5.00;99.90;;;;;;6227336;23;19934;-82
2022/01/21 19:19:36;;;;;;;;;;;5.20;99.90;;;;;;6229036;23;19923;-83